createdAt,value
2022-10-07T00:01:24.828Z,62.61
2022-10-07T00:03:27.915Z,63.04
2022-10-07T00:05:29.491Z,63.16
2022-10-07T00:07:31.160Z,63.10
2022-10-07T00:09:33.220Z,62.89
2022-10-07T00:11:34.921Z,62.85
2022-10-07T00:13:41.299Z,62.89
2022-10-07T00:15:42.935Z,62.62
2022-10-07T00:17:45.240Z,62.84
2022-10-07T00:19:47.306Z,63.33
2022-10-07T00:21:48.983Z,63.30
2022-10-07T00:23:50.972Z,63.63
2022-10-07T00:25:52.612Z,63.14
2022-10-07T00:27:54.300Z,63.14
2022-10-07T00:29:55.891Z,63.02
2022-10-07T00:31:57.570Z,63.03
2022-10-07T00:33:59.507Z,63.23
2022-10-07T00:36:01.128Z,62.73
2022-10-07T00:38:03.008Z,62.89
2022-10-07T00:40:05.045Z,62.86
2022-10-07T00:42:06.713Z,62.96
2022-10-07T00:44:27.177Z,63.38
2022-10-07T00:46:39.804Z,63.63
2022-10-07T00:48:42.663Z,63.85
2022-10-07T00:50:44.678Z,63.50
2022-10-07T00:52:50.438Z,63.88
2022-10-07T00:54:53.690Z,63.79
2022-10-07T00:56:55.362Z,63.88
2022-10-07T00:58:59.383Z,64.25
2022-10-07T01:01:01.487Z,64.39
2022-10-07T01:03:04.371Z,64.22
2022-10-07T01:05:07.874Z,65.00
2022-10-07T01:07:09.803Z,64.81
2022-10-07T01:09:11.875Z,64.76
2022-10-07T01:11:22.037Z,64.61
2022-10-07T01:13:39.373Z,64.68
2022-10-07T01:15:49.515Z,64.92
2022-10-07T01:17:59.269Z,64.96
2022-10-07T01:20:19.885Z,64.62
2022-10-07T01:22:39.046Z,64.86
2022-10-07T01:24:45.573Z,64.70
2022-10-07T01:27:22.940Z,65.08
2022-10-07T01:29:30.515Z,64.61
2022-10-07T01:31:57.934Z,65.11
2022-10-07T01:34:00.284Z,65.14
2022-10-07T01:36:09.012Z,64.91
2022-10-07T01:38:12.194Z,64.55
2022-10-07T01:40:17.031Z,64.98
2022-10-07T01:42:20.128Z,65.16
2022-10-07T01:44:21.822Z,65.08
2022-10-07T01:46:25.774Z,65.48
2022-10-07T01:48:27.424Z,65.72
2022-10-07T01:50:30.101Z,65.83
2022-10-07T01:52:34.637Z,65.94
2022-10-07T01:55:00.766Z,66.65
2022-10-07T01:57:05.366Z,66.83
2022-10-07T01:59:07.135Z,66.96
2022-10-07T02:01:19.173Z,66.85
2022-10-07T02:03:30.181Z,66.54
2022-10-07T02:05:49.130Z,66.95
2022-10-07T02:08:24.768Z,67.94
2022-10-07T02:10:41.702Z,68.94
2022-10-07T02:12:56.364Z,69.28
2022-10-07T02:15:10.641Z,69.51
2022-10-07T02:17:14.346Z,69.65
2022-10-07T02:19:19.857Z,69.78
2022-10-07T02:21:27.226Z,69.77
2022-10-07T02:23:29.632Z,69.23
2022-10-07T02:25:36.101Z,69.60
2022-10-07T02:27:38.800Z,69.38
2022-10-07T02:29:41.289Z,69.13
2022-10-07T02:31:43.587Z,68.87
2022-10-07T02:33:47.205Z,68.31
2022-10-07T02:35:54.897Z,68.35
2022-10-07T02:37:58.562Z,67.65
2022-10-07T02:40:01.003Z,67.91
2022-10-07T02:42:05.761Z,68.01
2022-10-07T02:44:15.624Z,67.98
2022-10-07T02:46:24.809Z,68.14
2022-10-07T02:48:28.839Z,68.22
2022-10-07T02:50:37.851Z,67.91
2022-10-07T02:52:40.391Z,68.06
2022-10-07T02:54:46.205Z,67.79
2022-10-07T02:56:48.964Z,67.42
2022-10-07T02:58:51.292Z,67.17
2022-10-07T03:00:58.032Z,67.05
2022-10-07T03:03:05.207Z,67.58
2022-10-07T03:05:08.603Z,67.23
2022-10-07T03:07:12.222Z,67.65
2022-10-07T03:09:14.011Z,67.81
2022-10-07T03:11:15.709Z,68.45
2022-10-07T03:13:17.390Z,68.82
2022-10-07T03:15:19.239Z,69.90
2022-10-07T03:17:20.853Z,70.24
2022-10-07T03:19:22.591Z,70.67
2022-10-07T03:21:25.288Z,70.80
2022-10-07T03:23:29.237Z,71.11
2022-10-07T03:25:30.828Z,70.36
2022-10-07T03:27:32.486Z,70.17
2022-10-07T03:29:35.087Z,70.01
2022-10-07T03:31:37.108Z,70.17
2022-10-07T03:33:38.826Z,69.75
2022-10-07T03:35:40.459Z,69.43
2022-10-07T03:37:42.620Z,69.21
2022-10-07T03:39:44.572Z,69.58
2022-10-07T03:41:48.516Z,69.07
2022-10-07T03:43:50.198Z,69.27
2022-10-07T03:45:52.143Z,70.74
2022-10-07T03:47:53.736Z,70.75
2022-10-07T03:49:56.910Z,70.59
2022-10-07T03:52:00.235Z,70.04
2022-10-07T03:54:01.921Z,70.53
2022-10-07T03:56:03.599Z,70.76
2022-10-07T03:58:05.242Z,70.32
2022-10-07T04:00:07.473Z,69.88
2022-10-07T04:02:09.609Z,69.73
2022-10-07T04:04:12.160Z,69.36
2022-10-07T04:06:14.382Z,69.22
2022-10-07T04:08:17.459Z,69.01
2022-10-07T04:10:19.745Z,69.02
2022-10-07T04:12:21.383Z,68.63
2022-10-07T04:14:22.955Z,68.42
2022-10-07T04:16:24.735Z,68.72
2022-10-07T04:18:26.376Z,68.40
2022-10-07T04:20:28.033Z,68.44
2022-10-07T04:22:31.594Z,68.24
2022-10-07T04:24:33.288Z,67.89
2022-10-07T04:26:34.943Z,67.63
2022-10-07T04:28:36.901Z,67.48
2022-10-07T04:30:40.158Z,67.48
2022-10-07T04:32:41.851Z,68.03
2022-10-07T04:34:43.475Z,67.95
2022-10-07T04:36:45.033Z,67.81
2022-10-07T04:38:53.265Z,67.67
2022-10-07T04:40:54.826Z,67.94
2022-10-07T04:43:14.937Z,67.39
2022-10-07T04:45:16.592Z,67.81
2022-10-07T04:47:18.208Z,67.83
2022-10-07T04:49:19.753Z,67.78
2022-10-07T04:51:22.994Z,67.70
2022-10-07T04:53:25.003Z,67.39
2022-10-07T04:55:26.621Z,67.46
2022-10-07T04:57:28.343Z,67.08
2022-10-07T04:59:30.294Z,67.19
2022-10-07T05:01:32.052Z,67.54
2022-10-07T05:03:36.444Z,67.72
2022-10-07T05:05:41.716Z,67.61
2022-10-07T05:07:43.554Z,67.43
2022-10-07T05:09:45.796Z,67.61
2022-10-07T05:11:48.247Z,67.54
2022-10-07T05:13:49.868Z,67.44
2022-10-07T05:15:53.618Z,67.47
2022-10-07T05:17:56.043Z,68.01
2022-10-07T05:19:57.630Z,68.22
2022-10-07T05:21:59.606Z,68.60
2022-10-07T05:24:01.140Z,69.08
2022-10-07T05:26:08.043Z,68.66
2022-10-07T05:28:14.759Z,68.02
2022-10-07T05:30:17.380Z,67.08
2022-10-07T05:32:19.053Z,66.71
2022-10-07T05:34:20.701Z,66.46
2022-10-07T05:36:22.301Z,66.37
2022-10-07T05:38:23.927Z,65.89
2022-10-07T05:40:25.725Z,66.04
2022-10-07T05:42:27.407Z,65.76
2022-10-07T05:44:31.420Z,65.34
2022-10-07T05:46:33.510Z,65.31
2022-10-07T05:48:39.243Z,64.89
2022-10-07T05:50:42.367Z,64.59
2022-10-07T05:52:45.396Z,64.54
2022-10-07T05:54:47.056Z,64.75
2022-10-07T05:56:49.646Z,64.44
2022-10-07T05:58:56.172Z,63.90
2022-10-07T06:01:03.998Z,64.05
2022-10-07T06:03:08.178Z,64.37
2022-10-07T06:05:10.181Z,63.64
2022-10-07T06:07:13.469Z,64.04
2022-10-07T06:09:36.009Z,63.36
2022-10-07T06:11:56.501Z,63.36
2022-10-07T06:13:58.215Z,63.16
2022-10-07T06:16:09.122Z,63.38
2022-10-07T06:18:10.772Z,63.20
2022-10-07T06:20:13.281Z,62.46
2022-10-07T06:22:15.020Z,62.42
2022-10-07T06:24:16.821Z,62.40
2022-10-07T06:26:18.816Z,62.32
2022-10-07T06:28:20.531Z,62.66
2022-10-07T06:30:22.254Z,61.98
2022-10-07T06:32:24.030Z,61.95
2022-10-07T06:34:25.663Z,61.35
2022-10-07T06:36:27.857Z,62.00
2022-10-07T06:38:29.426Z,62.04
2022-10-07T06:40:31.533Z,61.64
2022-10-07T06:42:33.173Z,63.21
2022-10-07T06:44:35.117Z,61.64
2022-10-07T06:46:36.945Z,61.31
2022-10-07T06:48:40.898Z,61.05
2022-10-07T06:50:50.928Z,60.05
2022-10-07T06:52:52.583Z,60.00
2022-10-07T06:54:54.162Z,59.19
2022-10-07T06:56:55.791Z,58.62
2022-10-07T06:58:57.641Z,57.78
2022-10-07T07:01:02.429Z,57.52
2022-10-07T07:03:04.337Z,57.86
2022-10-07T07:05:08.679Z,57.39
2022-10-07T07:07:10.391Z,57.09
2022-10-07T07:09:11.958Z,57.13
2022-10-07T07:11:32.794Z,56.59
2022-10-07T07:13:36.204Z,55.64
2022-10-07T07:15:38.969Z,55.82
2022-10-07T07:17:40.613Z,56.98
2022-10-07T07:19:42.820Z,57.13
2022-10-07T07:21:47.618Z,56.91
2022-10-07T07:23:53.751Z,56.75
2022-10-07T07:25:55.454Z,56.67
2022-10-07T07:28:00.819Z,56.00
2022-10-07T07:30:03.842Z,55.85
2022-10-07T07:32:06.299Z,55.13
2022-10-07T07:34:13.642Z,54.84
2022-10-07T07:36:16.600Z,54.10
2022-10-07T07:38:20.168Z,54.04
2022-10-07T07:40:23.729Z,53.45
2022-10-07T07:42:25.931Z,53.21
2022-10-07T07:44:33.997Z,53.16
2022-10-07T07:46:56.158Z,53.75
2022-10-07T07:48:58.646Z,53.85
2022-10-07T07:51:00.580Z,53.63
2022-10-07T07:53:04.522Z,54.76
2022-10-07T07:55:06.501Z,54.69
2022-10-07T07:57:08.414Z,54.03
2022-10-07T07:59:10.783Z,53.42
2022-10-07T08:01:18.689Z,53.27
2022-10-07T08:03:20.326Z,51.04
2022-10-07T08:05:24.039Z,51.22
2022-10-07T08:07:26.925Z,51.34
2022-10-07T08:09:28.583Z,50.67
2022-10-07T08:11:30.480Z,50.94
2022-10-07T08:13:33.135Z,50.82
2022-10-07T08:15:34.772Z,50.59
2022-10-07T08:17:36.444Z,49.84
2022-10-07T08:19:38.654Z,49.38
2022-10-07T08:21:40.517Z,50.23
2022-10-07T08:23:42.742Z,50.11
2022-10-07T08:25:44.420Z,49.33
2022-10-07T08:27:46.299Z,48.99
2022-10-07T08:29:48.030Z,46.92
2022-10-07T08:31:49.697Z,47.53
2022-10-07T08:33:51.391Z,47.01
2022-10-07T08:35:58.767Z,46.80
2022-10-07T08:38:00.368Z,46.13
2022-10-07T08:40:02.561Z,46.00
2022-10-07T08:42:26.389Z,45.35
2022-10-07T08:44:32.428Z,45.25
2022-10-07T08:46:36.146Z,44.92
2022-10-07T08:48:39.302Z,43.60
2022-10-07T08:50:41.009Z,43.80
2022-10-07T08:52:52.809Z,44.15
2022-10-07T08:54:54.625Z,44.12
2022-10-07T08:57:01.058Z,43.73
2022-10-07T08:59:09.709Z,43.50
2022-10-07T09:01:39.238Z,44.50
2022-10-07T09:03:44.002Z,44.54
2022-10-07T09:05:49.636Z,43.09
2022-10-07T09:07:57.524Z,43.72
2022-10-07T09:10:01.663Z,43.60
2022-10-07T09:12:05.533Z,42.85
2022-10-07T09:14:33.341Z,42.80
2022-10-07T09:16:38.641Z,41.99
2022-10-07T09:18:49.482Z,42.40
2022-10-07T09:21:12.796Z,41.76
2022-10-07T09:23:17.865Z,41.89
2022-10-07T09:25:25.337Z,41.67
2022-10-07T09:27:27.089Z,41.97
2022-10-07T09:29:30.059Z,41.80
2022-10-07T09:31:32.811Z,41.27
2022-10-07T09:33:42.483Z,41.22
2022-10-07T09:36:06.290Z,41.72
2022-10-07T09:38:09.232Z,41.94
2022-10-07T09:40:23.440Z,41.57
2022-10-07T09:42:28.764Z,42.65
2022-10-07T09:44:30.776Z,42.31
2022-10-07T09:46:49.280Z,41.68
2022-10-07T09:48:55.235Z,41.49
2022-10-07T09:51:18.245Z,41.61
2022-10-07T09:53:24.145Z,41.49
2022-10-07T09:55:40.228Z,41.48
2022-10-07T09:57:42.178Z,41.79
2022-10-07T09:59:43.934Z,42.35
2022-10-07T10:01:59.865Z,41.91
2022-10-07T10:04:01.626Z,42.40
2022-10-07T10:06:08.722Z,42.65
2022-10-07T10:08:13.302Z,42.64
2022-10-07T10:10:23.166Z,42.22
2022-10-07T10:12:25.489Z,41.75
2022-10-07T10:14:41.761Z,41.35
2022-10-07T10:16:46.820Z,41.11
2022-10-07T10:19:06.062Z,41.32
2022-10-07T10:21:35.924Z,41.68
2022-10-07T10:23:38.654Z,41.74
2022-10-07T10:26:12.497Z,40.92
2022-10-07T10:28:45.048Z,40.92
2022-10-07T10:30:52.963Z,40.84
2022-10-07T10:33:12.239Z,40.05
2022-10-07T10:35:29.500Z,39.23
2022-10-07T10:37:39.895Z,39.65
2022-10-07T10:39:59.463Z,39.67
2022-10-07T10:42:02.529Z,39.47
2022-10-07T10:44:23.256Z,39.56
2022-10-07T10:47:07.587Z,39.47
2022-10-07T10:49:36.601Z,38.74
2022-10-07T10:51:42.339Z,38.80
2022-10-07T10:53:57.228Z,38.09
2022-10-07T10:56:13.841Z,38.19
2022-10-07T10:58:45.065Z,38.32
2022-10-07T11:01:14.093Z,38.51
2022-10-07T11:03:32.759Z,38.23
2022-10-07T11:05:37.299Z,38.09
2022-10-07T11:07:50.073Z,38.02
2022-10-07T11:10:13.552Z,37.19
2022-10-07T11:12:46.739Z,37.60
2022-10-07T11:14:57.747Z,37.92
2022-10-07T11:17:03.849Z,37.88
2022-10-07T11:19:16.590Z,37.61
2022-10-07T11:21:33.666Z,39.16
2022-10-07T11:23:51.924Z,39.09
2022-10-07T11:26:06.255Z,37.94
2022-10-07T11:28:20.247Z,37.43
2022-10-07T11:30:23.203Z,37.87
2022-10-07T11:32:36.042Z,37.85
2022-10-07T11:34:54.298Z,37.82
2022-10-07T11:37:06.313Z,37.88
2022-10-07T11:39:09.092Z,37.93
2022-10-07T11:41:51.117Z,37.72
2022-10-07T11:43:57.309Z,37.33
2022-10-07T11:46:11.527Z,36.79
2022-10-07T11:48:19.955Z,37.32
2022-10-07T11:50:28.981Z,36.91
2022-10-07T11:52:37.093Z,36.35
2022-10-07T11:54:50.360Z,36.36
2022-10-07T11:56:53.494Z,36.79
2022-10-07T11:59:01.132Z,37.61
2022-10-07T12:01:29.010Z,37.88
2022-10-07T12:03:30.579Z,37.28
2022-10-07T12:05:35.252Z,37.09
2022-10-07T12:07:38.211Z,36.88
2022-10-07T12:09:54.430Z,37.05
2022-10-07T12:11:56.690Z,37.33
2022-10-07T12:14:38.450Z,36.65
2022-10-07T12:16:43.151Z,36.35
2022-10-07T12:19:07.970Z,36.11
2022-10-07T12:21:28.144Z,36.50
2022-10-07T12:23:36.343Z,36.23
2022-10-07T12:25:42.619Z,36.64
2022-10-07T12:27:46.398Z,36.72
2022-10-07T12:29:58.790Z,37.11
2022-10-07T12:32:00.747Z,36.89
2022-10-07T12:34:05.230Z,37.33
2022-10-07T12:36:18.658Z,37.38
2022-10-07T12:38:28.747Z,36.84
2022-10-07T12:40:30.658Z,36.90
2022-10-07T12:42:32.405Z,36.71
2022-10-07T12:44:39.382Z,36.53
2022-10-07T12:46:41.009Z,36.59
2022-10-07T12:49:06.464Z,36.37
2022-10-07T12:51:18.469Z,36.79
2022-10-07T12:53:24.633Z,36.69
2022-10-07T12:55:39.990Z,36.91
2022-10-07T12:57:43.399Z,36.83
2022-10-07T13:00:08.360Z,36.91
2022-10-07T13:02:47.876Z,37.14
2022-10-07T13:05:20.677Z,36.68
2022-10-07T13:07:54.819Z,36.49
2022-10-07T13:10:15.037Z,36.38
2022-10-07T13:12:26.178Z,36.57
2022-10-07T13:15:03.424Z,36.36
2022-10-07T13:17:27.821Z,36.84
2022-10-07T13:19:39.513Z,36.67
2022-10-07T13:21:47.343Z,36.75
2022-10-07T13:23:52.962Z,36.32
2022-10-07T13:25:56.509Z,36.13
2022-10-07T13:27:59.305Z,35.96
2022-10-07T13:30:02.888Z,36.51
2022-10-07T13:32:14.003Z,36.14
2022-10-07T13:34:18.065Z,35.34
2022-10-07T13:36:25.714Z,35.80
2022-10-07T13:38:28.542Z,35.02
2022-10-07T13:40:35.564Z,34.83
2022-10-07T13:42:37.284Z,34.79
2022-10-07T13:44:43.624Z,34.10
2022-10-07T13:47:00.068Z,34.83
2022-10-07T13:49:03.206Z,35.23
2022-10-07T13:51:05.632Z,35.75
2022-10-07T13:53:16.907Z,35.65
2022-10-07T13:55:38.741Z,35.17
2022-10-07T13:57:44.023Z,35.07
2022-10-07T13:59:47.130Z,34.45
2022-10-07T14:01:58.214Z,34.67
2022-10-07T14:04:20.263Z,34.81
2022-10-07T14:06:51.396Z,34.89
2022-10-07T14:08:52.966Z,35.22
2022-10-07T14:11:07.954Z,35.40
2022-10-07T14:13:15.671Z,35.58
2022-10-07T14:15:21.138Z,35.76
2022-10-07T14:17:28.364Z,36.25
2022-10-07T14:19:33.102Z,36.31
2022-10-07T14:21:40.633Z,36.85
2022-10-07T14:23:42.333Z,36.46
2022-10-07T14:26:06.323Z,36.15
2022-10-07T14:28:30.138Z,36.58
2022-10-07T14:30:56.069Z,36.70
2022-10-07T14:33:22.924Z,36.60
2022-10-07T14:35:26.985Z,36.92
2022-10-07T14:37:31.797Z,37.70
2022-10-07T14:39:40.698Z,37.80
2022-10-07T14:41:42.254Z,37.97
2022-10-07T14:43:45.499Z,37.86
2022-10-07T14:45:47.141Z,38.07
2022-10-07T14:47:49.639Z,37.71
2022-10-07T14:49:55.426Z,38.41
2022-10-07T14:51:57.333Z,38.02
2022-10-07T14:54:05.133Z,38.14
2022-10-07T14:56:07.026Z,38.36
2022-10-07T14:58:11.960Z,38.19
2022-10-07T15:00:22.624Z,38.20
2022-10-07T15:02:24.201Z,38.10
2022-10-07T15:04:25.899Z,38.31
2022-10-07T15:06:28.436Z,38.93
2022-10-07T15:08:31.568Z,39.14
2022-10-07T15:10:33.365Z,39.65
2022-10-07T15:12:34.921Z,40.26
2022-10-07T15:14:55.336Z,40.31
2022-10-07T15:16:57.725Z,39.91
2022-10-07T15:18:59.407Z,40.10
2022-10-07T15:21:00.962Z,40.42
2022-10-07T15:23:02.718Z,40.50
2022-10-07T15:25:06.102Z,40.74
2022-10-07T15:27:09.856Z,41.14
2022-10-07T15:29:13.521Z,41.34
2022-10-07T15:31:15.142Z,41.57
2022-10-07T15:33:16.722Z,41.57
2022-10-07T15:35:18.551Z,41.77
2022-10-07T15:37:21.333Z,42.14
2022-10-07T15:39:22.903Z,42.20
2022-10-07T15:41:41.672Z,42.28
2022-10-07T15:43:43.209Z,42.06
2022-10-07T15:45:45.059Z,42.08
2022-10-07T15:47:46.767Z,42.94
2022-10-07T15:49:49.652Z,42.20
2022-10-07T15:51:51.290Z,42.31
2022-10-07T15:53:54.113Z,42.78
2022-10-07T15:55:57.124Z,42.99
2022-10-07T15:57:59.053Z,42.71
2022-10-07T16:00:01.700Z,42.43
2022-10-07T16:02:05.729Z,42.53
2022-10-07T16:04:11.678Z,42.86
2022-10-07T16:06:16.330Z,42.86
2022-10-07T16:08:17.880Z,43.13
2022-10-07T16:10:19.436Z,42.89
2022-10-07T16:12:21.538Z,42.93
2022-10-07T16:14:23.196Z,42.85
2022-10-07T16:16:26.881Z,43.19
2022-10-07T16:18:30.010Z,43.14
2022-10-07T16:20:31.564Z,43.24
2022-10-07T16:22:33.243Z,43.45
2022-10-07T16:24:35.602Z,43.86
2022-10-07T16:26:37.557Z,44.23
2022-10-07T16:28:58.489Z,44.61
2022-10-07T16:31:00.135Z,44.90
2022-10-07T16:33:01.755Z,45.06
2022-10-07T16:35:03.554Z,44.99
2022-10-07T16:37:05.804Z,44.74
2022-10-07T16:39:10.706Z,44.95
2022-10-07T16:41:12.410Z,44.88
2022-10-07T16:43:13.986Z,44.82
2022-10-07T16:45:16.593Z,44.72
2022-10-07T16:47:18.324Z,45.09
2022-10-07T16:49:19.879Z,45.11
2022-10-07T16:51:36.351Z,45.33
2022-10-07T16:53:39.433Z,45.47
2022-10-07T16:55:41.244Z,46.47
2022-10-07T16:57:42.988Z,46.66
2022-10-07T16:59:44.748Z,46.66
2022-10-07T17:01:46.583Z,47.04
2022-10-07T17:03:49.959Z,47.27
2022-10-07T17:05:58.204Z,47.48
2022-10-07T17:07:59.816Z,47.75
2022-10-07T17:10:01.493Z,48.13
2022-10-07T17:12:04.662Z,47.96
2022-10-07T17:14:17.082Z,48.33
2022-10-07T17:16:18.770Z,48.20
2022-10-07T17:18:20.801Z,48.17
2022-10-07T17:20:23.116Z,47.83
2022-10-07T17:22:24.714Z,47.74
2022-10-07T17:24:27.078Z,47.91
2022-10-07T17:26:29.841Z,48.09
2022-10-07T17:28:31.445Z,48.29
2022-10-07T17:30:33.821Z,48.25
2022-10-07T17:32:35.393Z,48.33
2022-10-07T17:34:38.363Z,48.34
2022-10-07T17:36:43.928Z,48.78
2022-10-07T17:38:45.475Z,48.88
2022-10-07T17:40:47.067Z,48.79
2022-10-07T17:42:48.708Z,48.93
2022-10-07T17:44:50.472Z,48.82
2022-10-07T17:46:52.319Z,49.10
2022-10-07T17:48:57.403Z,49.12
2022-10-07T17:51:05.862Z,49.24
2022-10-07T17:53:07.567Z,49.41
2022-10-07T17:55:09.745Z,49.50
2022-10-07T17:57:11.306Z,49.80
2022-10-07T17:59:14.372Z,49.80
2022-10-07T18:01:27.137Z,49.98
2022-10-07T18:03:28.769Z,50.19
2022-10-07T18:05:30.331Z,50.21
2022-10-07T18:07:32.025Z,50.24
2022-10-07T18:09:33.830Z,50.38
2022-10-07T18:11:54.539Z,50.37
2022-10-07T18:14:14.477Z,50.31
2022-10-07T18:16:16.652Z,50.60
2022-10-07T18:18:18.263Z,50.72
2022-10-07T18:20:21.886Z,51.05
2022-10-07T18:22:24.415Z,50.83
2022-10-07T18:24:28.914Z,51.09
2022-10-07T18:26:30.657Z,51.25
2022-10-07T18:28:34.438Z,51.32
2022-10-07T18:30:35.897Z,51.23
2022-10-07T18:32:37.429Z,51.30
2022-10-07T18:34:39.307Z,51.44
2022-10-07T18:36:40.957Z,51.66
2022-10-07T18:38:44.331Z,51.67
2022-10-07T18:40:45.969Z,51.81
2022-10-07T18:42:47.547Z,51.79
2022-10-07T18:44:50.596Z,52.08
2022-10-07T18:46:52.461Z,52.02
2022-10-07T18:48:54.286Z,52.00
2022-10-07T18:50:55.855Z,52.11
2022-10-07T18:52:57.622Z,52.14
2022-10-07T18:54:59.160Z,52.34
2022-10-07T18:57:00.831Z,52.18
2022-10-07T18:59:02.616Z,52.28
2022-10-07T19:01:24.422Z,52.55
2022-10-07T19:03:26.129Z,52.71
2022-10-07T19:05:33.620Z,52.72
2022-10-07T19:07:35.521Z,52.75
2022-10-07T19:09:37.131Z,53.08
2022-10-07T19:11:38.717Z,53.17
2022-10-07T19:13:50.150Z,53.12
2022-10-07T19:15:52.216Z,53.48
2022-10-07T19:17:53.792Z,53.65
2022-10-07T19:19:57.838Z,53.58
2022-10-07T19:21:59.878Z,53.43
2022-10-07T19:24:02.779Z,53.81
2022-10-07T19:26:04.381Z,53.72
2022-10-07T19:28:06.281Z,54.25
2022-10-07T19:30:08.763Z,54.92
2022-10-07T19:32:10.404Z,54.84
2022-10-07T19:34:20.544Z,54.99
2022-10-07T19:36:23.285Z,54.73
2022-10-07T19:38:24.960Z,54.89
2022-10-07T19:40:26.600Z,54.73
2022-10-07T19:42:28.709Z,54.97
2022-10-07T19:44:33.681Z,54.82
2022-10-07T19:46:35.517Z,55.15
2022-10-07T19:48:37.375Z,54.99
2022-10-07T19:50:39.111Z,55.10
2022-10-07T19:52:40.905Z,55.09
2022-10-07T19:54:45.811Z,55.45
2022-10-07T19:56:47.418Z,55.32
2022-10-07T19:59:00.550Z,55.43
2022-10-07T20:01:06.641Z,55.32
2022-10-07T20:03:08.693Z,55.27
2022-10-07T20:05:10.285Z,55.28
2022-10-07T20:07:12.191Z,55.48
2022-10-07T20:09:16.512Z,55.41
2022-10-07T20:11:18.134Z,55.64
2022-10-07T20:13:19.729Z,55.78
2022-10-07T20:15:23.231Z,55.53
2022-10-07T20:17:24.788Z,55.63
2022-10-07T20:19:26.401Z,55.63
2022-10-07T20:21:28.558Z,55.63
2022-10-07T20:23:34.472Z,55.79
2022-10-07T20:25:39.110Z,56.21
2022-10-07T20:27:40.921Z,56.23
2022-10-07T20:29:57.768Z,56.13
2022-10-07T20:31:59.387Z,55.68
2022-10-07T20:34:01.784Z,55.83
2022-10-07T20:36:04.047Z,56.03
2022-10-07T20:38:05.640Z,55.71
2022-10-07T20:40:26.438Z,55.97
2022-10-07T20:42:29.765Z,55.82
2022-10-07T20:44:31.407Z,55.85
2022-10-07T20:46:33.609Z,56.28
2022-10-07T20:48:35.924Z,56.01
2022-10-07T20:50:39.398Z,56.05
2022-10-07T20:52:41.312Z,56.48
2022-10-07T20:54:43.677Z,56.06
2022-10-07T20:56:45.645Z,56.07
2022-10-07T20:58:47.459Z,55.85
2022-10-07T21:00:49.001Z,55.99
2022-10-07T21:02:51.127Z,56.01
2022-10-07T21:04:53.417Z,56.16
2022-10-07T21:06:58.166Z,56.04
2022-10-07T21:08:59.890Z,56.23
2022-10-07T21:11:02.514Z,56.15
2022-10-07T21:13:04.135Z,56.06
2022-10-07T21:15:06.883Z,56.60
2022-10-07T21:17:08.777Z,56.57
2022-10-07T21:19:10.372Z,56.74
2022-10-07T21:21:11.978Z,56.82
2022-10-07T21:23:13.572Z,56.79
2022-10-07T21:25:15.497Z,56.74
2022-10-07T21:27:17.218Z,57.11
2022-10-07T21:29:19.024Z,56.82
2022-10-07T21:31:22.385Z,57.13
2022-10-07T21:33:24.311Z,56.96
2022-10-07T21:35:25.911Z,57.44
2022-10-07T21:37:29.662Z,57.16
2022-10-07T21:39:31.136Z,57.34
2022-10-07T21:41:34.997Z,57.57
2022-10-07T21:43:36.540Z,57.72
2022-10-07T21:45:39.289Z,57.83
2022-10-07T21:47:41.056Z,58.33
2022-10-07T21:49:42.640Z,58.49
2022-10-07T21:51:44.748Z,58.43
2022-10-07T21:53:53.271Z,58.31
2022-10-07T21:55:54.936Z,58.21
2022-10-07T21:57:56.697Z,58.63
2022-10-07T21:59:58.409Z,58.29
2022-10-07T22:02:00.034Z,58.45
2022-10-07T22:04:02.528Z,58.44
2022-10-07T22:06:06.176Z,59.18
2022-10-07T22:08:30.926Z,59.34
2022-10-07T22:10:32.546Z,59.55
2022-10-07T22:12:34.334Z,59.18
2022-10-07T22:14:35.991Z,59.44
2022-10-07T22:16:37.825Z,59.89
2022-10-07T22:18:39.537Z,60.13
2022-10-07T22:20:41.546Z,60.11
2022-10-07T22:22:43.366Z,60.00
2022-10-07T22:24:45.157Z,60.54
2022-10-07T22:26:48.033Z,60.35
2022-10-07T22:28:50.038Z,60.10
2022-10-07T22:30:51.920Z,59.81
2022-10-07T22:32:53.760Z,59.36
2022-10-07T22:35:13.915Z,59.10
2022-10-07T22:37:15.573Z,59.32
2022-10-07T22:39:17.162Z,59.17
2022-10-07T22:41:19.494Z,59.07
2022-10-07T22:43:21.123Z,59.79
2022-10-07T22:45:22.700Z,60.65
2022-10-07T22:47:24.833Z,61.04
2022-10-07T22:49:29.785Z,61.88
2022-10-07T22:51:31.973Z,62.49
2022-10-07T22:53:36.856Z,62.56
2022-10-07T22:55:38.549Z,62.90
2022-10-07T22:57:40.180Z,62.41
2022-10-07T22:59:41.804Z,62.98
2022-10-07T23:01:43.367Z,62.95
2022-10-07T23:03:45.711Z,64.03
2022-10-07T23:05:50.525Z,64.14
2022-10-07T23:07:52.570Z,63.81
2022-10-07T23:09:54.403Z,63.71
2022-10-07T23:11:56.041Z,63.17
2022-10-07T23:13:57.973Z,63.01
2022-10-07T23:16:04.746Z,62.74
2022-10-07T23:18:06.401Z,62.59
2022-10-07T23:20:08.321Z,62.28
2022-10-07T23:22:10.030Z,62.92
2022-10-07T23:24:11.923Z,62.92
2022-10-07T23:26:18.939Z,62.65
2022-10-07T23:28:22.055Z,62.61
2022-10-07T23:30:23.936Z,62.52
2022-10-07T23:32:25.505Z,62.66
2022-10-07T23:34:27.448Z,62.67
2022-10-07T23:36:30.053Z,62.43
2022-10-07T23:38:35.926Z,62.05
2022-10-07T23:40:37.529Z,62.29
2022-10-07T23:42:39.190Z,62.23
2022-10-07T23:44:40.802Z,62.10
2022-10-07T23:46:42.515Z,62.38
2022-10-07T23:48:44.432Z,62.27
2022-10-07T23:50:50.380Z,62.04
2022-10-07T23:52:52.023Z,62.25
2022-10-07T23:54:53.649Z,62.54
2022-10-07T23:56:55.252Z,62.07
2022-10-07T23:58:56.916Z,62.35
